sensor_id;sensor_type;location;lat;lon;timestamp;P1;durP1;ratioP1;P2;durP2;ratioP2
3953;SDS011;1991;48.682;9.030;2024-03-07T00:02:19;38.27;;;25.03;;
3953;SDS011;1991;48.682;9.030;2024-03-07T00:04:45;35.30;;;25.47;;
3953;SDS011;1991;48.682;9.030;2024-03-07T00:07:11;38.53;;;25.20;;
3953;SDS011;1991;48.682;9.030;2024-03-07T00:09:36;34.83;;;24.60;;
3953;SDS011;1991;48.682;9.030;2024-03-07T00:12:02;39.83;;;26.80;;
3953;SDS011;1991;48.682;9.030;2024-03-07T00:14:29;39.93;;;26.40;;
3953;SDS011;1991;48.682;9.030;2024-03-07T00:16:57;37.87;;;26.30;;
3953;SDS011;1991;48.682;9.030;2024-03-07T00:19:24;39.17;;;24.93;;
3953;SDS011;1991;48.682;9.030;2024-03-07T00:21:57;35.67;;;25.40;;
3953;SDS011;1991;48.682;9.030;2024-03-07T00:24:24;37.93;;;25.80;;
3953;SDS011;1991;48.682;9.030;2024-03-07T00:26:50;38.67;;;25.50;;
3953;SDS011;1991;48.682;9.030;2024-03-07T00:29:16;39.03;;;26.10;;
3953;SDS011;1991;48.682;9.030;2024-03-07T00:31:43;37.87;;;25.90;;
3953;SDS011;1991;48.682;9.030;2024-03-07T00:34:11;35.03;;;24.63;;
3953;SDS011;1991;48.682;9.030;2024-03-07T00:36:39;38.53;;;26.27;;
3953;SDS011;1991;48.682;9.030;2024-03-07T00:39:05;39.17;;;25.43;;
3953;SDS011;1991;48.682;9.030;2024-03-07T00:41:33;37.73;;;24.73;;
3953;SDS011;1991;48.682;9.030;2024-03-07T00:43:59;37.97;;;26.00;;
3953;SDS011;1991;48.682;9.030;2024-03-07T00:46:24;40.60;;;27.40;;
3953;SDS011;1991;48.682;9.030;2024-03-07T00:48:50;40.63;;;26.03;;
3953;SDS011;1991;48.682;9.030;2024-03-07T00:51:15;38.03;;;26.60;;
3953;SDS011;1991;48.682;9.030;2024-03-07T00:53:41;38.03;;;26.43;;
3953;SDS011;1991;48.682;9.030;2024-03-07T00:56:06;38.97;;;26.67;;
3953;SDS011;1991;48.682;9.030;2024-03-07T00:58:32;41.93;;;27.07;;
3953;SDS011;1991;48.682;9.030;2024-03-07T01:00:58;39.53;;;27.60;;
3953;SDS011;1991;48.682;9.030;2024-03-07T01:03:23;40.97;;;28.67;;
3953;SDS011;1991;48.682;9.030;2024-03-07T01:05:49;41.03;;;29.90;;
3953;SDS011;1991;48.682;9.030;2024-03-07T01:08:15;41.70;;;28.73;;
3953;SDS011;1991;48.682;9.030;2024-03-07T01:10:40;43.40;;;31.23;;
3953;SDS011;1991;48.682;9.030;2024-03-07T01:13:06;41.33;;;29.53;;
3953;SDS011;1991;48.682;9.030;2024-03-07T01:15:34;42.13;;;29.90;;
3953;SDS011;1991;48.682;9.030;2024-03-07T01:17:59;43.33;;;31.37;;
3953;SDS011;1991;48.682;9.030;2024-03-07T01:20:25;46.03;;;30.47;;
3953;SDS011;1991;48.682;9.030;2024-03-07T01:22:51;44.67;;;30.13;;
3953;SDS011;1991;48.682;9.030;2024-03-07T01:25:17;40.83;;;30.10;;
3953;SDS011;1991;48.682;9.030;2024-03-07T01:27:43;43.03;;;30.33;;
3953;SDS011;1991;48.682;9.030;2024-03-07T01:30:09;42.10;;;29.60;;
3953;SDS011;1991;48.682;9.030;2024-03-07T01:32:35;42.73;;;30.77;;
3953;SDS011;1991;48.682;9.030;2024-03-07T01:35:01;41.20;;;30.57;;
3953;SDS011;1991;48.682;9.030;2024-03-07T01:37:26;43.97;;;29.93;;
3953;SDS011;1991;48.682;9.030;2024-03-07T01:39:53;45.23;;;31.30;;
3953;SDS011;1991;48.682;9.030;2024-03-07T01:42:19;42.93;;;30.93;;
3953;SDS011;1991;48.682;9.030;2024-03-07T01:44:45;44.63;;;31.10;;
3953;SDS011;1991;48.682;9.030;2024-03-07T01:47:11;46.13;;;31.97;;
3953;SDS011;1991;48.682;9.030;2024-03-07T01:49:37;44.13;;;31.13;;
3953;SDS011;1991;48.682;9.030;2024-03-07T01:52:04;44.63;;;30.93;;
3953;SDS011;1991;48.682;9.030;2024-03-07T01:54:30;47.00;;;30.73;;
3953;SDS011;1991;48.682;9.030;2024-03-07T01:56:57;42.97;;;31.60;;
3953;SDS011;1991;48.682;9.030;2024-03-07T01:59:23;44.33;;;30.43;;
3953;SDS011;1991;48.682;9.030;2024-03-07T02:01:50;46.37;;;30.73;;
3953;SDS011;1991;48.682;9.030;2024-03-07T02:04:15;42.87;;;31.67;;
3953;SDS011;1991;48.682;9.030;2024-03-07T02:06:41;43.40;;;31.60;;
3953;SDS011;1991;48.682;9.030;2024-03-07T02:09:07;47.03;;;32.67;;
3953;SDS011;1991;48.682;9.030;2024-03-07T02:11:33;49.10;;;33.37;;
3953;SDS011;1991;48.682;9.030;2024-03-07T02:13:59;42.30;;;31.57;;
3953;SDS011;1991;48.682;9.030;2024-03-07T02:16:24;44.60;;;32.03;;
3953;SDS011;1991;48.682;9.030;2024-03-07T02:18:50;49.93;;;34.47;;
3953;SDS011;1991;48.682;9.030;2024-03-07T02:21:16;47.70;;;32.30;;
3953;SDS011;1991;48.682;9.030;2024-03-07T02:23:42;47.40;;;33.30;;
3953;SDS011;1991;48.682;9.030;2024-03-07T02:26:08;54.13;;;35.17;;
3953;SDS011;1991;48.682;9.030;2024-03-07T02:28:34;48.33;;;34.60;;
3953;SDS011;1991;48.682;9.030;2024-03-07T02:31:00;45.73;;;32.83;;
3953;SDS011;1991;48.682;9.030;2024-03-07T02:33:25;51.83;;;35.37;;
3953;SDS011;1991;48.682;9.030;2024-03-07T02:35:51;45.93;;;33.37;;
3953;SDS011;1991;48.682;9.030;2024-03-07T02:38:17;46.60;;;32.13;;
3953;SDS011;1991;48.682;9.030;2024-03-07T02:40:43;45.40;;;34.13;;
3953;SDS011;1991;48.682;9.030;2024-03-07T02:43:08;50.73;;;34.33;;
3953;SDS011;1991;48.682;9.030;2024-03-07T02:45:34;50.20;;;35.07;;
3953;SDS011;1991;48.682;9.030;2024-03-07T02:48:00;52.50;;;34.93;;
3953;SDS011;1991;48.682;9.030;2024-03-07T02:50:25;48.80;;;34.13;;
3953;SDS011;1991;48.682;9.030;2024-03-07T02:52:51;50.23;;;33.63;;
3953;SDS011;1991;48.682;9.030;2024-03-07T02:55:17;46.57;;;33.67;;
3953;SDS011;1991;48.682;9.030;2024-03-07T02:57:44;47.70;;;32.67;;
3953;SDS011;1991;48.682;9.030;2024-03-07T03:00:10;50.53;;;32.30;;
3953;SDS011;1991;48.682;9.030;2024-03-07T03:02:48;47.97;;;33.70;;
3953;SDS011;1991;48.682;9.030;2024-03-07T03:05:14;46.67;;;32.73;;
3953;SDS011;1991;48.682;9.030;2024-03-07T03:07:40;49.67;;;33.33;;
3953;SDS011;1991;48.682;9.030;2024-03-07T03:10:07;50.50;;;34.73;;
3953;SDS011;1991;48.682;9.030;2024-03-07T03:12:33;53.03;;;35.37;;
3953;SDS011;1991;48.682;9.030;2024-03-07T03:14:58;52.53;;;35.10;;
3953;SDS011;1991;48.682;9.030;2024-03-07T03:17:24;54.77;;;34.47;;
3953;SDS011;1991;48.682;9.030;2024-03-07T03:19:49;52.57;;;34.13;;
3953;SDS011;1991;48.682;9.030;2024-03-07T03:22:16;53.40;;;34.30;;
3953;SDS011;1991;48.682;9.030;2024-03-07T03:24:43;52.67;;;34.20;;
3953;SDS011;1991;48.682;9.030;2024-03-07T03:27:09;47.50;;;32.30;;
3953;SDS011;1991;48.682;9.030;2024-03-07T03:29:35;45.67;;;33.13;;
3953;SDS011;1991;48.682;9.030;2024-03-07T03:32:01;50.17;;;34.57;;
3953;SDS011;1991;48.682;9.030;2024-03-07T03:34:27;45.37;;;31.70;;
3953;SDS011;1991;48.682;9.030;2024-03-07T03:36:52;49.23;;;34.33;;
3953;SDS011;1991;48.682;9.030;2024-03-07T03:39:18;55.77;;;33.30;;
3953;SDS011;1991;48.682;9.030;2024-03-07T03:41:45;48.90;;;33.23;;
3953;SDS011;1991;48.682;9.030;2024-03-07T03:44:11;47.87;;;33.47;;
3953;SDS011;1991;48.682;9.030;2024-03-07T03:46:36;48.03;;;32.07;;
3953;SDS011;1991;48.682;9.030;2024-03-07T03:49:02;50.27;;;33.73;;
3953;SDS011;1991;48.682;9.030;2024-03-07T03:51:30;50.33;;;33.97;;
3953;SDS011;1991;48.682;9.030;2024-03-07T03:53:55;48.50;;;34.43;;
3953;SDS011;1991;48.682;9.030;2024-03-07T03:56:21;47.53;;;33.33;;
3953;SDS011;1991;48.682;9.030;2024-03-07T03:58:46;49.87;;;33.17;;
3953;SDS011;1991;48.682;9.030;2024-03-07T04:01:12;46.97;;;33.00;;
3953;SDS011;1991;48.682;9.030;2024-03-07T04:03:39;49.00;;;31.67;;
3953;SDS011;1991;48.682;9.030;2024-03-07T04:06:05;52.27;;;31.83;;
3953;SDS011;1991;48.682;9.030;2024-03-07T04:08:32;48.40;;;33.27;;
3953;SDS011;1991;48.682;9.030;2024-03-07T04:10:57;51.93;;;32.93;;
3953;SDS011;1991;48.682;9.030;2024-03-07T04:13:23;46.40;;;32.20;;
3953;SDS011;1991;48.682;9.030;2024-03-07T04:15:48;53.07;;;33.33;;
3953;SDS011;1991;48.682;9.030;2024-03-07T04:18:14;46.33;;;32.30;;
3953;SDS011;1991;48.682;9.030;2024-03-07T04:20:39;49.63;;;33.67;;
3953;SDS011;1991;48.682;9.030;2024-03-07T04:23:05;51.43;;;35.27;;
3953;SDS011;1991;48.682;9.030;2024-03-07T04:25:32;57.67;;;35.13;;
3953;SDS011;1991;48.682;9.030;2024-03-07T04:27:58;50.57;;;35.63;;
3953;SDS011;1991;48.682;9.030;2024-03-07T04:30:24;55.20;;;35.37;;
3953;SDS011;1991;48.682;9.030;2024-03-07T04:32:49;57.13;;;36.53;;
3953;SDS011;1991;48.682;9.030;2024-03-07T04:35:16;53.23;;;35.67;;
3953;SDS011;1991;48.682;9.030;2024-03-07T04:37:42;53.13;;;36.77;;
3953;SDS011;1991;48.682;9.030;2024-03-07T04:40:08;57.07;;;37.43;;
3953;SDS011;1991;48.682;9.030;2024-03-07T04:42:41;57.20;;;38.50;;
3953;SDS011;1991;48.682;9.030;2024-03-07T04:45:08;60.63;;;39.03;;
3953;SDS011;1991;48.682;9.030;2024-03-07T04:47:35;57.90;;;38.60;;
3953;SDS011;1991;48.682;9.030;2024-03-07T04:50:01;62.53;;;38.77;;
3953;SDS011;1991;48.682;9.030;2024-03-07T04:52:27;55.37;;;38.43;;
3953;SDS011;1991;48.682;9.030;2024-03-07T04:54:53;58.53;;;37.43;;
3953;SDS011;1991;48.682;9.030;2024-03-07T04:57:20;59.73;;;38.47;;
3953;SDS011;1991;48.682;9.030;2024-03-07T04:59:45;63.23;;;39.50;;
3953;SDS011;1991;48.682;9.030;2024-03-07T05:02:11;53.80;;;37.83;;
3953;SDS011;1991;48.682;9.030;2024-03-07T05:04:36;57.33;;;38.70;;
3953;SDS011;1991;48.682;9.030;2024-03-07T05:07:02;58.10;;;38.33;;
3953;SDS011;1991;48.682;9.030;2024-03-07T05:09:28;56.27;;;36.70;;
3953;SDS011;1991;48.682;9.030;2024-03-07T05:11:54;56.17;;;35.87;;
3953;SDS011;1991;48.682;9.030;2024-03-07T05:14:20;53.97;;;36.73;;
3953;SDS011;1991;48.682;9.030;2024-03-07T05:16:50;54.97;;;35.93;;
3953;SDS011;1991;48.682;9.030;2024-03-07T05:19:30;56.53;;;36.27;;
3953;SDS011;1991;48.682;9.030;2024-03-07T05:21:57;56.93;;;37.37;;
3953;SDS011;1991;48.682;9.030;2024-03-07T05:24:23;57.73;;;38.00;;
3953;SDS011;1991;48.682;9.030;2024-03-07T05:26:48;57.07;;;37.80;;
3953;SDS011;1991;48.682;9.030;2024-03-07T05:29:14;51.90;;;35.00;;
3953;SDS011;1991;48.682;9.030;2024-03-07T05:31:42;54.90;;;35.80;;
3953;SDS011;1991;48.682;9.030;2024-03-07T05:34:14;58.97;;;36.93;;
3953;SDS011;1991;48.682;9.030;2024-03-07T05:36:43;55.43;;;36.00;;
3953;SDS011;1991;48.682;9.030;2024-03-07T05:39:13;52.33;;;36.00;;
3953;SDS011;1991;48.682;9.030;2024-03-07T05:41:40;49.30;;;34.07;;
3953;SDS011;1991;48.682;9.030;2024-03-07T05:44:06;51.63;;;35.03;;
3953;SDS011;1991;48.682;9.030;2024-03-07T05:46:34;51.37;;;34.10;;
3953;SDS011;1991;48.682;9.030;2024-03-07T05:49:06;53.33;;;34.83;;
3953;SDS011;1991;48.682;9.030;2024-03-07T05:51:32;50.33;;;34.63;;
3953;SDS011;1991;48.682;9.030;2024-03-07T05:53:58;54.53;;;35.30;;
3953;SDS011;1991;48.682;9.030;2024-03-07T05:56:24;48.23;;;33.80;;
3953;SDS011;1991;48.682;9.030;2024-03-07T05:58:49;55.53;;;36.13;;
3953;SDS011;1991;48.682;9.030;2024-03-07T06:01:16;55.13;;;33.87;;
3953;SDS011;1991;48.682;9.030;2024-03-07T06:03:43;48.63;;;33.90;;
3953;SDS011;1991;48.682;9.030;2024-03-07T06:06:09;53.77;;;35.47;;
3953;SDS011;1991;48.682;9.030;2024-03-07T06:08:36;53.20;;;34.77;;
3953;SDS011;1991;48.682;9.030;2024-03-07T06:11:03;47.03;;;33.83;;
3953;SDS011;1991;48.682;9.030;2024-03-07T06:13:28;52.77;;;34.70;;
3953;SDS011;1991;48.682;9.030;2024-03-07T06:15:54;52.17;;;33.87;;
3953;SDS011;1991;48.682;9.030;2024-03-07T06:18:20;48.83;;;33.63;;
3953;SDS011;1991;48.682;9.030;2024-03-07T06:20:45;51.73;;;34.23;;
3953;SDS011;1991;48.682;9.030;2024-03-07T06:23:11;47.30;;;33.57;;
3953;SDS011;1991;48.682;9.030;2024-03-07T06:25:37;51.20;;;33.57;;
3953;SDS011;1991;48.682;9.030;2024-03-07T06:28:12;50.17;;;33.63;;
3953;SDS011;1991;48.682;9.030;2024-03-07T06:30:38;51.50;;;34.30;;
3953;SDS011;1991;48.682;9.030;2024-03-07T06:33:05;49.87;;;33.97;;
3953;SDS011;1991;48.682;9.030;2024-03-07T06:35:31;51.00;;;34.60;;
3953;SDS011;1991;48.682;9.030;2024-03-07T06:37:57;48.47;;;33.43;;
3953;SDS011;1991;48.682;9.030;2024-03-07T06:40:23;46.07;;;32.90;;
3953;SDS011;1991;48.682;9.030;2024-03-07T06:42:49;49.07;;;33.77;;
3953;SDS011;1991;48.682;9.030;2024-03-07T06:45:15;49.47;;;34.73;;
3953;SDS011;1991;48.682;9.030;2024-03-07T06:47:41;48.97;;;34.10;;
3953;SDS011;1991;48.682;9.030;2024-03-07T06:50:07;52.63;;;35.63;;
3953;SDS011;1991;48.682;9.030;2024-03-07T06:52:35;48.83;;;33.23;;
3953;SDS011;1991;48.682;9.030;2024-03-07T06:55:01;47.37;;;33.07;;
3953;SDS011;1991;48.682;9.030;2024-03-07T06:57:28;47.07;;;33.67;;
3953;SDS011;1991;48.682;9.030;2024-03-07T06:59:54;51.03;;;33.10;;
3953;SDS011;1991;48.682;9.030;2024-03-07T07:02:20;51.40;;;34.77;;
3953;SDS011;1991;48.682;9.030;2024-03-07T07:04:46;46.17;;;32.83;;
3953;SDS011;1991;48.682;9.030;2024-03-07T07:07:12;46.53;;;31.90;;
3953;SDS011;1991;48.682;9.030;2024-03-07T07:09:39;47.97;;;32.83;;
3953;SDS011;1991;48.682;9.030;2024-03-07T07:12:05;48.80;;;33.10;;
3953;SDS011;1991;48.682;9.030;2024-03-07T07:14:31;52.50;;;33.40;;
3953;SDS011;1991;48.682;9.030;2024-03-07T07:16:57;47.70;;;32.70;;
3953;SDS011;1991;48.682;9.030;2024-03-07T07:19:24;43.67;;;31.43;;
3953;SDS011;1991;48.682;9.030;2024-03-07T07:21:49;46.50;;;32.50;;
3953;SDS011;1991;48.682;9.030;2024-03-07T07:24:18;40.77;;;31.47;;
3953;SDS011;1991;48.682;9.030;2024-03-07T07:26:48;43.77;;;30.17;;
3953;SDS011;1991;48.682;9.030;2024-03-07T07:29:17;46.10;;;32.43;;
3953;SDS011;1991;48.682;9.030;2024-03-07T07:31:43;48.80;;;34.40;;
3953;SDS011;1991;48.682;9.030;2024-03-07T07:34:10;188.57;;;100.73;;
3953;SDS011;1991;48.682;9.030;2024-03-07T07:36:36;45.13;;;32.23;;
3953;SDS011;1991;48.682;9.030;2024-03-07T07:39:01;42.63;;;30.43;;
3953;SDS011;1991;48.682;9.030;2024-03-07T07:41:28;56.20;;;35.80;;
3953;SDS011;1991;48.682;9.030;2024-03-07T07:43:53;47.93;;;33.20;;
3953;SDS011;1991;48.682;9.030;2024-03-07T07:46:19;46.53;;;31.00;;
3953;SDS011;1991;48.682;9.030;2024-03-07T07:48:45;33.83;;;26.27;;
3953;SDS011;1991;48.682;9.030;2024-03-07T07:51:10;37.17;;;28.83;;
3953;SDS011;1991;48.682;9.030;2024-03-07T07:53:36;36.53;;;27.17;;
3953;SDS011;1991;48.682;9.030;2024-03-07T07:56:03;35.23;;;25.70;;
3953;SDS011;1991;48.682;9.030;2024-03-07T07:58:29;33.23;;;24.37;;
3953;SDS011;1991;48.682;9.030;2024-03-07T08:00:55;34.83;;;25.27;;
3953;SDS011;1991;48.682;9.030;2024-03-07T08:03:21;33.30;;;24.60;;
3953;SDS011;1991;48.682;9.030;2024-03-07T08:05:47;33.27;;;25.10;;
3953;SDS011;1991;48.682;9.030;2024-03-07T08:08:12;33.40;;;24.07;;
3953;SDS011;1991;48.682;9.030;2024-03-07T08:10:41;51.93;;;34.77;;
3953;SDS011;1991;48.682;9.030;2024-03-07T08:13:07;35.37;;;26.00;;
3953;SDS011;1991;48.682;9.030;2024-03-07T08:15:36;51.33;;;40.13;;
3953;SDS011;1991;48.682;9.030;2024-03-07T08:18:01;37.63;;;28.93;;
3953;SDS011;1991;48.682;9.030;2024-03-07T08:20:33;38.27;;;28.30;;
3953;SDS011;1991;48.682;9.030;2024-03-07T08:22:59;36.13;;;27.03;;
3953;SDS011;1991;48.682;9.030;2024-03-07T08:25:26;35.93;;;25.73;;
3953;SDS011;1991;48.682;9.030;2024-03-07T08:27:54;32.07;;;25.37;;
3953;SDS011;1991;48.682;9.030;2024-03-07T08:30:21;36.77;;;27.30;;
3953;SDS011;1991;48.682;9.030;2024-03-07T08:32:51;36.60;;;28.00;;
3953;SDS011;1991;48.682;9.030;2024-03-07T08:35:18;42.17;;;29.47;;
3953;SDS011;1991;48.682;9.030;2024-03-07T08:37:51;54.00;;;35.93;;
3953;SDS011;1991;48.682;9.030;2024-03-07T08:40:24;34.47;;;26.27;;
3953;SDS011;1991;48.682;9.030;2024-03-07T08:42:51;37.37;;;27.30;;
3953;SDS011;1991;48.682;9.030;2024-03-07T08:45:19;37.07;;;28.83;;
3953;SDS011;1991;48.682;9.030;2024-03-07T08:47:45;37.20;;;27.37;;
3953;SDS011;1991;48.682;9.030;2024-03-07T08:50:12;40.63;;;29.27;;
3953;SDS011;1991;48.682;9.030;2024-03-07T08:52:39;37.47;;;28.03;;
3953;SDS011;1991;48.682;9.030;2024-03-07T08:55:05;41.00;;;29.53;;
3953;SDS011;1991;48.682;9.030;2024-03-07T08:57:35;39.03;;;28.90;;
3953;SDS011;1991;48.682;9.030;2024-03-07T09:00:01;38.30;;;27.93;;
3953;SDS011;1991;48.682;9.030;2024-03-07T09:02:33;39.17;;;29.23;;
3953;SDS011;1991;48.682;9.030;2024-03-07T09:04:59;38.70;;;29.43;;
3953;SDS011;1991;48.682;9.030;2024-03-07T09:07:26;37.87;;;27.20;;
3953;SDS011;1991;48.682;9.030;2024-03-07T09:09:51;37.67;;;27.90;;
3953;SDS011;1991;48.682;9.030;2024-03-07T09:12:17;35.93;;;28.47;;
3953;SDS011;1991;48.682;9.030;2024-03-07T09:14:45;39.87;;;28.73;;
3953;SDS011;1991;48.682;9.030;2024-03-07T09:17:10;39.47;;;28.40;;
3953;SDS011;1991;48.682;9.030;2024-03-07T09:19:37;37.17;;;27.83;;
3953;SDS011;1991;48.682;9.030;2024-03-07T09:22:02;44.23;;;27.73;;
3953;SDS011;1991;48.682;9.030;2024-03-07T09:24:30;36.10;;;27.90;;
3953;SDS011;1991;48.682;9.030;2024-03-07T09:26:56;39.00;;;28.47;;
3953;SDS011;1991;48.682;9.030;2024-03-07T09:29:22;39.40;;;28.93;;
3953;SDS011;1991;48.682;9.030;2024-03-07T09:31:51;37.77;;;29.20;;
3953;SDS011;1991;48.682;9.030;2024-03-07T09:34:18;37.13;;;27.50;;
3953;SDS011;1991;48.682;9.030;2024-03-07T09:36:45;38.33;;;28.97;;
3953;SDS011;1991;48.682;9.030;2024-03-07T09:39:11;38.23;;;28.17;;
3953;SDS011;1991;48.682;9.030;2024-03-07T09:41:37;38.73;;;28.83;;
3953;SDS011;1991;48.682;9.030;2024-03-07T09:44:04;36.80;;;28.53;;
3953;SDS011;1991;48.682;9.030;2024-03-07T09:46:30;36.43;;;27.90;;
3953;SDS011;1991;48.682;9.030;2024-03-07T09:48:57;38.80;;;28.80;;
3953;SDS011;1991;48.682;9.030;2024-03-07T09:51:23;36.93;;;27.83;;
3953;SDS011;1991;48.682;9.030;2024-03-07T09:53:51;37.57;;;27.83;;
3953;SDS011;1991;48.682;9.030;2024-03-07T09:56:20;37.80;;;28.77;;
3953;SDS011;1991;48.682;9.030;2024-03-07T09:58:49;41.47;;;29.17;;
3953;SDS011;1991;48.682;9.030;2024-03-07T10:01:19;36.03;;;27.60;;
3953;SDS011;1991;48.682;9.030;2024-03-07T10:03:46;35.87;;;28.43;;
3953;SDS011;1991;48.682;9.030;2024-03-07T10:06:13;40.63;;;28.27;;
3953;SDS011;1991;48.682;9.030;2024-03-07T10:08:40;41.70;;;27.47;;
3953;SDS011;1991;48.682;9.030;2024-03-07T10:11:07;34.50;;;26.83;;
3953;SDS011;1991;48.682;9.030;2024-03-07T10:13:35;37.37;;;27.17;;
3953;SDS011;1991;48.682;9.030;2024-03-07T10:16:01;37.17;;;26.23;;
3953;SDS011;1991;48.682;9.030;2024-03-07T10:18:27;38.73;;;27.93;;
3953;SDS011;1991;48.682;9.030;2024-03-07T10:20:56;36.00;;;26.93;;
3953;SDS011;1991;48.682;9.030;2024-03-07T10:23:22;36.60;;;26.97;;
3953;SDS011;1991;48.682;9.030;2024-03-07T10:25:48;37.67;;;27.03;;
3953;SDS011;1991;48.682;9.030;2024-03-07T10:28:18;37.57;;;26.47;;
3953;SDS011;1991;48.682;9.030;2024-03-07T10:30:45;34.10;;;26.60;;
3953;SDS011;1991;48.682;9.030;2024-03-07T10:33:11;33.83;;;25.80;;
3953;SDS011;1991;48.682;9.030;2024-03-07T10:35:37;35.50;;;26.13;;
3953;SDS011;1991;48.682;9.030;2024-03-07T10:38:03;34.50;;;25.77;;
3953;SDS011;1991;48.682;9.030;2024-03-07T10:40:32;33.23;;;26.07;;
3953;SDS011;1991;48.682;9.030;2024-03-07T10:43:00;34.27;;;24.77;;
3953;SDS011;1991;48.682;9.030;2024-03-07T10:45:28;36.50;;;26.33;;
3953;SDS011;1991;48.682;9.030;2024-03-07T10:47:56;35.40;;;25.30;;
3953;SDS011;1991;48.682;9.030;2024-03-07T10:56:06;32.43;;;23.77;;
3953;SDS011;1991;48.682;9.030;2024-03-07T10:58:57;31.37;;;21.40;;
3953;SDS011;1991;48.682;9.030;2024-03-07T11:01:32;29.73;;;21.67;;
3953;SDS011;1991;48.682;9.030;2024-03-07T11:04:04;32.17;;;21.00;;
3953;SDS011;1991;48.682;9.030;2024-03-07T11:06:31;27.83;;;20.17;;
3953;SDS011;1991;48.682;9.030;2024-03-07T11:08:59;27.50;;;20.97;;
3953;SDS011;1991;48.682;9.030;2024-03-07T11:11:28;26.17;;;19.73;;
3953;SDS011;1991;48.682;9.030;2024-03-07T11:13:54;25.63;;;20.37;;
3953;SDS011;1991;48.682;9.030;2024-03-07T11:16:24;25.67;;;19.07;;
3953;SDS011;1991;48.682;9.030;2024-03-07T11:21:47;25.30;;;20.83;;
3953;SDS011;1991;48.682;9.030;2024-03-07T11:27:09;23.23;;;19.67;;
3953;SDS011;1991;48.682;9.030;2024-03-07T11:32:11;28.08;;;20.60;;
3953;SDS011;1991;48.682;9.030;2024-03-07T11:34:44;26.17;;;20.20;;
3953;SDS011;1991;48.682;9.030;2024-03-07T11:37:17;25.02;;;20.08;;
3953;SDS011;1991;48.682;9.030;2024-03-07T11:39:47;23.17;;;19.33;;
3953;SDS011;1991;48.682;9.030;2024-03-07T11:44:49;22.38;;;20.00;;
3953;SDS011;1991;48.682;9.030;2024-03-07T11:47:16;24.85;;;20.50;;
3953;SDS011;1991;48.682;9.030;2024-03-07T11:49:43;24.27;;;20.85;;
3953;SDS011;1991;48.682;9.030;2024-03-07T11:52:08;25.42;;;22.65;;
3953;SDS011;1991;48.682;9.030;2024-03-07T11:54:38;26.48;;;21.42;;
3953;SDS011;1991;48.682;9.030;2024-03-07T11:57:11;25.80;;;22.52;;
3953;SDS011;1991;48.682;9.030;2024-03-07T11:59:41;25.20;;;22.27;;
3953;SDS011;1991;48.682;9.030;2024-03-07T12:02:13;28.10;;;22.13;;
3953;SDS011;1991;48.682;9.030;2024-03-07T12:04:41;29.35;;;21.35;;
3953;SDS011;1991;48.682;9.030;2024-03-07T12:07:07;26.65;;;22.27;;
3953;SDS011;1991;48.682;9.030;2024-03-07T12:09:35;27.17;;;21.92;;
3953;SDS011;1991;48.682;9.030;2024-03-07T12:12:06;29.63;;;21.60;;
3953;SDS011;1991;48.682;9.030;2024-03-07T12:14:34;28.42;;;22.52;;
3953;SDS011;1991;48.682;9.030;2024-03-07T12:17:03;30.67;;;23.00;;
3953;SDS011;1991;48.682;9.030;2024-03-07T12:19:32;30.38;;;22.00;;
3953;SDS011;1991;48.682;9.030;2024-03-07T12:22:01;31.10;;;23.10;;
3953;SDS011;1991;48.682;9.030;2024-03-07T12:24:27;31.37;;;23.67;;
3953;SDS011;1991;48.682;9.030;2024-03-07T12:27:03;32.73;;;24.10;;
3953;SDS011;1991;48.682;9.030;2024-03-07T12:29:30;32.53;;;23.97;;
3953;SDS011;1991;48.682;9.030;2024-03-07T12:31:56;33.80;;;24.07;;
3953;SDS011;1991;48.682;9.030;2024-03-07T12:34:22;32.10;;;23.63;;
3953;SDS011;1991;48.682;9.030;2024-03-07T12:36:51;34.27;;;23.77;;
3953;SDS011;1991;48.682;9.030;2024-03-07T12:39:21;33.37;;;23.10;;
3953;SDS011;1991;48.682;9.030;2024-03-07T12:41:50;35.13;;;22.80;;
3953;SDS011;1991;48.682;9.030;2024-03-07T12:44:22;33.30;;;23.30;;
3953;SDS011;1991;48.682;9.030;2024-03-07T12:46:48;32.73;;;23.27;;
3953;SDS011;1991;48.682;9.030;2024-03-07T12:49:21;35.00;;;23.53;;
3953;SDS011;1991;48.682;9.030;2024-03-07T12:51:47;30.57;;;22.40;;
3953;SDS011;1991;48.682;9.030;2024-03-07T12:54:12;30.23;;;23.70;;
3953;SDS011;1991;48.682;9.030;2024-03-07T12:56:38;34.30;;;23.80;;
3953;SDS011;1991;48.682;9.030;2024-03-07T12:59:04;31.93;;;23.30;;
3953;SDS011;1991;48.682;9.030;2024-03-07T13:01:34;33.80;;;24.43;;
3953;SDS011;1991;48.682;9.030;2024-03-07T13:04:02;33.83;;;24.77;;
3953;SDS011;1991;48.682;9.030;2024-03-07T13:06:29;35.37;;;24.63;;
3953;SDS011;1991;48.682;9.030;2024-03-07T13:08:57;31.05;;;23.85;;
3953;SDS011;1991;48.682;9.030;2024-03-07T13:11:23;32.07;;;24.97;;
3953;SDS011;1991;48.682;9.030;2024-03-07T13:13:52;32.83;;;24.97;;
3953;SDS011;1991;48.682;9.030;2024-03-07T13:16:17;33.87;;;24.97;;
3953;SDS011;1991;48.682;9.030;2024-03-07T13:18:43;38.70;;;26.40;;
3953;SDS011;1991;48.682;9.030;2024-03-07T13:21:10;32.77;;;24.67;;
3953;SDS011;1991;48.682;9.030;2024-03-07T13:23:39;35.17;;;25.90;;
3953;SDS011;1991;48.682;9.030;2024-03-07T13:26:04;34.50;;;26.37;;
3953;SDS011;1991;48.682;9.030;2024-03-07T13:28:33;35.93;;;25.93;;
3953;SDS011;1991;48.682;9.030;2024-03-07T13:30:59;38.07;;;26.73;;
3953;SDS011;1991;48.682;9.030;2024-03-07T13:33:25;35.47;;;25.90;;
3953;SDS011;1991;48.682;9.030;2024-03-07T13:35:52;35.17;;;26.47;;
3953;SDS011;1991;48.682;9.030;2024-03-07T13:38:18;39.73;;;27.60;;
3953;SDS011;1991;48.682;9.030;2024-03-07T13:40:43;35.50;;;26.70;;
3953;SDS011;1991;48.682;9.030;2024-03-07T13:43:09;35.40;;;25.70;;
3953;SDS011;1991;48.682;9.030;2024-03-07T13:45:35;37.60;;;26.63;;
3953;SDS011;1991;48.682;9.030;2024-03-07T13:48:04;33.67;;;24.87;;
3953;SDS011;1991;48.682;9.030;2024-03-07T13:50:35;32.87;;;26.17;;
3953;SDS011;1991;48.682;9.030;2024-03-07T13:53:02;31.87;;;25.20;;
3953;SDS011;1991;48.682;9.030;2024-03-07T13:58:54;30.13;;;23.83;;
3953;SDS011;1991;48.682;9.030;2024-03-07T14:10:26;33.77;;;25.90;;
3953;SDS011;1991;48.682;9.030;2024-03-07T14:16:44;38.03;;;24.77;;
3953;SDS011;1991;48.682;9.030;2024-03-07T14:25:19;36.10;;;26.10;;
3953;SDS011;1991;48.682;9.030;2024-03-07T14:30:50;37.77;;;25.90;;
3953;SDS011;1991;48.682;9.030;2024-03-07T14:33:32;31.00;;;24.07;;
3953;SDS011;1991;48.682;9.030;2024-03-07T14:36:14;36.93;;;25.63;;
3953;SDS011;1991;48.682;9.030;2024-03-07T14:38:51;35.70;;;25.13;;
3953;SDS011;1991;48.682;9.030;2024-03-07T14:41:19;34.83;;;25.83;;
3953;SDS011;1991;48.682;9.030;2024-03-07T14:43:48;33.03;;;25.77;;
3953;SDS011;1991;48.682;9.030;2024-03-07T14:46:14;31.83;;;25.30;;
3953;SDS011;1991;48.682;9.030;2024-03-07T14:48:40;35.73;;;26.20;;
3953;SDS011;1991;48.682;9.030;2024-03-07T14:51:07;33.27;;;25.30;;
3953;SDS011;1991;48.682;9.030;2024-03-07T14:53:38;33.73;;;24.67;;
3953;SDS011;1991;48.682;9.030;2024-03-07T14:56:07;31.83;;;24.77;;
3953;SDS011;1991;48.682;9.030;2024-03-07T14:58:34;33.97;;;26.27;;
3953;SDS011;1991;48.682;9.030;2024-03-07T15:01:03;34.20;;;25.73;;
3953;SDS011;1991;48.682;9.030;2024-03-07T15:03:31;32.47;;;25.40;;
3953;SDS011;1991;48.682;9.030;2024-03-07T15:05:56;31.87;;;25.40;;
3953;SDS011;1991;48.682;9.030;2024-03-07T15:08:23;33.73;;;26.00;;
3953;SDS011;1991;48.682;9.030;2024-03-07T15:10:53;36.13;;;27.87;;
3953;SDS011;1991;48.682;9.030;2024-03-07T15:13:38;32.57;;;25.07;;
3953;SDS011;1991;48.682;9.030;2024-03-07T15:16:04;35.73;;;26.20;;
3953;SDS011;1991;48.682;9.030;2024-03-07T15:18:31;33.17;;;25.87;;
3953;SDS011;1991;48.682;9.030;2024-03-07T15:20:57;30.10;;;24.67;;
3953;SDS011;1991;48.682;9.030;2024-03-07T15:23:22;34.13;;;25.93;;
3953;SDS011;1991;48.682;9.030;2024-03-07T15:25:48;31.60;;;24.07;;
3953;SDS011;1991;48.682;9.030;2024-03-07T15:28:13;32.33;;;25.03;;
3953;SDS011;1991;48.682;9.030;2024-03-07T15:30:39;34.23;;;26.93;;